sensor_id;sensor_type;location;lat;lon;timestamp;P1;durP1;ratioP1;P2;durP2;ratioP2
45936;SDS011;31649;46.510;6.498;2022-09-03T00:00:51;8.68;;;7.57;;
45936;SDS011;31649;46.510;6.498;2022-09-03T00:03:26;10.98;;;6.65;;
45936;SDS011;31649;46.510;6.498;2022-09-03T00:06:15;10.13;;;7.15;;
45936;SDS011;31649;46.510;6.498;2022-09-03T00:08:50;7.20;;;6.50;;
45936;SDS011;31649;46.510;6.498;2022-09-03T00:11:32;8.10;;;6.47;;
45936;SDS011;31649;46.510;6.498;2022-09-03T00:14:15;10.50;;;6.20;;
45936;SDS011;31649;46.510;6.498;2022-09-03T00:16:58;10.20;;;6.15;;
45936;SDS011;31649;46.510;6.498;2022-09-03T00:19:28;8.77;;;5.18;;
45936;SDS011;31649;46.510;6.498;2022-09-03T00:22:17;6.90;;;3.97;;
45936;SDS011;31649;46.510;6.498;2022-09-03T00:24:48;3.80;;;3.15;;
45936;SDS011;31649;46.510;6.498;2022-09-03T00:27:16;4.65;;;4.00;;
45936;SDS011;31649;46.510;6.498;2022-09-03T00:29:54;6.25;;;3.90;;
45936;SDS011;31649;46.510;6.498;2022-09-03T00:32:28;8.85;;;3.75;;
45936;SDS011;31649;46.510;6.498;2022-09-03T00:35:03;6.28;;;3.40;;
45936;SDS011;31649;46.510;6.498;2022-09-03T00:37:33;6.30;;;3.72;;
45936;SDS011;31649;46.510;6.498;2022-09-03T00:39:59;9.25;;;4.20;;
45936;SDS011;31649;46.510;6.498;2022-09-03T00:47:59;6.88;;;3.80;;
45936;SDS011;31649;46.510;6.498;2022-09-03T00:53:19;13.73;;;4.68;;
45936;SDS011;31649;46.510;6.498;2022-09-03T01:01:27;6.43;;;4.07;;
45936;SDS011;31649;46.510;6.498;2022-09-03T01:04:05;4.22;;;3.75;;
45936;SDS011;31649;46.510;6.498;2022-09-03T01:06:48;7.70;;;4.20;;
45936;SDS011;31649;46.510;6.498;2022-09-03T01:09:33;8.73;;;3.10;;
45936;SDS011;31649;46.510;6.498;2022-09-03T01:12:18;5.65;;;3.20;;
45936;SDS011;31649;46.510;6.498;2022-09-03T01:15:21;3.25;;;2.95;;
45936;SDS011;31649;46.510;6.498;2022-09-03T01:18:00;4.47;;;2.45;;
45936;SDS011;31649;46.510;6.498;2022-09-03T01:23:27;3.65;;;2.40;;
45936;SDS011;31649;46.510;6.498;2022-09-03T01:31:57;5.88;;;3.47;;
45936;SDS011;31649;46.510;6.498;2022-09-03T01:34:42;8.18;;;4.63;;
45936;SDS011;31649;46.510;6.498;2022-09-03T01:37:13;8.68;;;4.28;;
45936;SDS011;31649;46.510;6.498;2022-09-03T01:40:21;6.68;;;3.88;;
45936;SDS011;31649;46.510;6.498;2022-09-03T01:45:27;5.68;;;3.25;;
45936;SDS011;31649;46.510;6.498;2022-09-03T01:53:09;6.80;;;3.28;;
45936;SDS011;31649;46.510;6.498;2022-09-03T01:58:35;6.60;;;3.20;;
45936;SDS011;31649;46.510;6.498;2022-09-03T02:01:09;4.05;;;3.25;;
45936;SDS011;31649;46.510;6.498;2022-09-03T02:03:39;5.30;;;3.65;;
45936;SDS011;31649;46.510;6.498;2022-09-03T02:06:09;6.15;;;3.13;;
45936;SDS011;31649;46.510;6.498;2022-09-03T02:08:36;4.53;;;3.08;;
45936;SDS011;31649;46.510;6.498;2022-09-03T02:11:02;6.38;;;3.00;;
45936;SDS011;31649;46.510;6.498;2022-09-03T02:13:40;3.75;;;3.20;;
45936;SDS011;31649;46.510;6.498;2022-09-03T02:16:14;6.07;;;3.15;;
45936;SDS011;31649;46.510;6.498;2022-09-03T02:18:53;3.90;;;3.03;;
45936;SDS011;31649;46.510;6.498;2022-09-03T02:21:22;4.93;;;3.25;;
45936;SDS011;31649;46.510;6.498;2022-09-03T02:23:49;4.53;;;3.30;;
45936;SDS011;31649;46.510;6.498;2022-09-03T02:26:17;6.60;;;3.65;;
45936;SDS011;31649;46.510;6.498;2022-09-03T02:28:46;4.68;;;3.13;;
45936;SDS011;31649;46.510;6.498;2022-09-03T02:31:12;3.90;;;3.50;;
45936;SDS011;31649;46.510;6.498;2022-09-03T02:33:39;4.47;;;3.40;;
45936;SDS011;31649;46.510;6.498;2022-09-03T02:36:08;4.28;;;3.13;;
45936;SDS011;31649;46.510;6.498;2022-09-03T02:38:35;3.80;;;2.55;;
45936;SDS011;31649;46.510;6.498;2022-09-03T02:41:00;3.33;;;2.95;;
45936;SDS011;31649;46.510;6.498;2022-09-03T02:43:31;2.40;;;2.20;;
45936;SDS011;31649;46.510;6.498;2022-09-03T02:46:04;2.90;;;2.70;;
45936;SDS011;31649;46.510;6.498;2022-09-03T02:48:34;3.70;;;3.00;;
45936;SDS011;31649;46.510;6.498;2022-09-03T02:51:00;3.92;;;2.80;;
45936;SDS011;31649;46.510;6.498;2022-09-03T02:53:25;3.25;;;2.95;;
45936;SDS011;31649;46.510;6.498;2022-09-03T02:55:56;4.55;;;2.90;;
45936;SDS011;31649;46.510;6.498;2022-09-03T02:58:22;5.10;;;2.58;;
45936;SDS011;31649;46.510;6.498;2022-09-03T03:00:48;3.35;;;2.97;;
45936;SDS011;31649;46.510;6.498;2022-09-03T03:03:13;4.80;;;3.03;;
45936;SDS011;31649;46.510;6.498;2022-09-03T03:05:43;2.70;;;2.50;;
45936;SDS011;31649;46.510;6.498;2022-09-03T03:08:11;3.45;;;3.15;;
45936;SDS011;31649;46.510;6.498;2022-09-03T03:10:39;3.45;;;2.50;;
45936;SDS011;31649;46.510;6.498;2022-09-03T03:13:05;2.33;;;2.13;;
45936;SDS011;31649;46.510;6.498;2022-09-03T03:15:30;3.10;;;2.80;;
45936;SDS011;31649;46.510;6.498;2022-09-03T03:17:56;3.35;;;2.95;;
45936;SDS011;31649;46.510;6.498;2022-09-03T03:20:21;3.95;;;2.83;;
45936;SDS011;31649;46.510;6.498;2022-09-03T03:22:47;3.70;;;2.47;;
45936;SDS011;31649;46.510;6.498;2022-09-03T03:25:12;3.08;;;2.20;;
45936;SDS011;31649;46.510;6.498;2022-09-03T03:27:38;3.47;;;2.65;;
45936;SDS011;31649;46.510;6.498;2022-09-03T03:30:05;5.18;;;2.30;;
45936;SDS011;31649;46.510;6.498;2022-09-03T03:32:33;2.80;;;2.60;;
45936;SDS011;31649;46.510;6.498;2022-09-03T03:34:59;3.42;;;2.30;;
45936;SDS011;31649;46.510;6.498;2022-09-03T03:37:24;3.17;;;2.47;;
45936;SDS011;31649;46.510;6.498;2022-09-03T03:39:50;2.65;;;2.25;;
45936;SDS011;31649;46.510;6.498;2022-09-03T03:42:15;2.22;;;2.03;;
45936;SDS011;31649;46.510;6.498;2022-09-03T03:44:40;2.53;;;2.22;;
45936;SDS011;31649;46.510;6.498;2022-09-03T03:47:07;2.85;;;2.45;;
45936;SDS011;31649;46.510;6.498;2022-09-03T03:49:33;2.72;;;2.47;;
45936;SDS011;31649;46.510;6.498;2022-09-03T03:51:58;4.28;;;2.20;;
45936;SDS011;31649;46.510;6.498;2022-09-03T03:54:24;3.08;;;2.67;;
45936;SDS011;31649;46.510;6.498;2022-09-03T03:56:49;2.95;;;2.30;;
45936;SDS011;31649;46.510;6.498;2022-09-03T03:59:14;3.67;;;2.60;;
45936;SDS011;31649;46.510;6.498;2022-09-03T04:01:40;2.50;;;2.30;;
45936;SDS011;31649;46.510;6.498;2022-09-03T04:04:05;2.88;;;2.40;;
45936;SDS011;31649;46.510;6.498;2022-09-03T04:06:31;3.95;;;2.17;;
45936;SDS011;31649;46.510;6.498;2022-09-03T04:08:56;2.92;;;2.58;;
45936;SDS011;31649;46.510;6.498;2022-09-03T04:11:22;6.57;;;3.25;;
45936;SDS011;31649;46.510;6.498;2022-09-03T04:13:48;3.65;;;2.78;;
45936;SDS011;31649;46.510;6.498;2022-09-03T04:16:18;2.97;;;2.75;;
45936;SDS011;31649;46.510;6.498;2022-09-03T04:18:46;3.00;;;2.50;;
45936;SDS011;31649;46.510;6.498;2022-09-03T04:21:14;3.30;;;3.00;;
45936;SDS011;31649;46.510;6.498;2022-09-03T04:23:42;7.03;;;3.13;;
45936;SDS011;31649;46.510;6.498;2022-09-03T04:26:11;4.85;;;3.10;;
45936;SDS011;31649;46.510;6.498;2022-09-03T04:28:39;4.60;;;2.58;;
45936;SDS011;31649;46.510;6.498;2022-09-03T04:31:06;3.13;;;2.80;;
45936;SDS011;31649;46.510;6.498;2022-09-03T04:33:34;3.67;;;2.63;;
45936;SDS011;31649;46.510;6.498;2022-09-03T04:36:02;3.22;;;2.85;;
45936;SDS011;31649;46.510;6.498;2022-09-03T04:41:02;4.97;;;3.30;;
45936;SDS011;31649;46.510;6.498;2022-09-03T04:43:29;2.80;;;2.50;;
45936;SDS011;31649;46.510;6.498;2022-09-03T04:45:55;5.13;;;3.33;;
45936;SDS011;31649;46.510;6.498;2022-09-03T04:48:24;4.88;;;3.15;;
45936;SDS011;31649;46.510;6.498;2022-09-03T04:50:50;3.42;;;2.90;;
45936;SDS011;31649;46.510;6.498;2022-09-03T04:53:15;3.20;;;2.90;;
45936;SDS011;31649;46.510;6.498;2022-09-03T04:55:41;3.25;;;2.78;;
45936;SDS011;31649;46.510;6.498;2022-09-03T04:58:06;6.13;;;3.03;;
45936;SDS011;31649;46.510;6.498;2022-09-03T05:00:34;3.20;;;2.88;;
45936;SDS011;31649;46.510;6.498;2022-09-03T05:03:00;4.65;;;3.50;;
45936;SDS011;31649;46.510;6.498;2022-09-03T05:05:26;3.65;;;3.35;;
45936;SDS011;31649;46.510;6.498;2022-09-03T05:07:51;3.08;;;2.50;;
45936;SDS011;31649;46.510;6.498;2022-09-03T05:10:17;4.00;;;2.60;;
45936;SDS011;31649;46.510;6.498;2022-09-03T05:12:56;4.93;;;2.70;;
45936;SDS011;31649;46.510;6.498;2022-09-03T05:15:26;3.40;;;2.97;;
45936;SDS011;31649;46.510;6.498;2022-09-03T05:17:54;3.10;;;2.85;;
45936;SDS011;31649;46.510;6.498;2022-09-03T05:20:20;4.30;;;2.75;;
45936;SDS011;31649;46.510;6.498;2022-09-03T05:22:46;3.45;;;3.00;;
45936;SDS011;31649;46.510;6.498;2022-09-03T05:25:12;3.22;;;2.92;;
45936;SDS011;31649;46.510;6.498;2022-09-03T05:27:37;3.28;;;2.95;;
45936;SDS011;31649;46.510;6.498;2022-09-03T05:30:03;5.43;;;3.75;;
45936;SDS011;31649;46.510;6.498;2022-09-03T05:32:29;4.32;;;3.08;;
45936;SDS011;31649;46.510;6.498;2022-09-03T05:34:55;6.07;;;3.30;;
45936;SDS011;31649;46.510;6.498;2022-09-03T05:37:21;4.60;;;3.45;;
45936;SDS011;31649;46.510;6.498;2022-09-03T05:39:47;5.68;;;3.58;;
45936;SDS011;31649;46.510;6.498;2022-09-03T05:42:12;4.60;;;3.15;;
45936;SDS011;31649;46.510;6.498;2022-09-03T05:44:38;3.67;;;3.20;;
45936;SDS011;31649;46.510;6.498;2022-09-03T05:47:04;5.30;;;3.63;;
45936;SDS011;31649;46.510;6.498;2022-09-03T05:49:29;5.68;;;3.17;;
45936;SDS011;31649;46.510;6.498;2022-09-03T05:51:55;3.30;;;3.00;;
45936;SDS011;31649;46.510;6.498;2022-09-03T05:54:21;3.15;;;2.70;;
45936;SDS011;31649;46.510;6.498;2022-09-03T05:56:47;3.65;;;2.88;;
45936;SDS011;31649;46.510;6.498;2022-09-03T05:59:12;4.40;;;3.00;;
45936;SDS011;31649;46.510;6.498;2022-09-03T06:01:39;3.38;;;3.00;;
45936;SDS011;31649;46.510;6.498;2022-09-03T06:04:07;3.83;;;3.42;;
45936;SDS011;31649;46.510;6.498;2022-09-03T06:06:37;8.45;;;3.47;;
45936;SDS011;31649;46.510;6.498;2022-09-03T06:09:08;6.90;;;3.53;;
45936;SDS011;31649;46.510;6.498;2022-09-03T06:11:37;5.18;;;2.65;;
45936;SDS011;31649;46.510;6.498;2022-09-03T06:14:05;4.65;;;3.10;;
45936;SDS011;31649;46.510;6.498;2022-09-03T06:16:33;5.80;;;3.55;;
45936;SDS011;31649;46.510;6.498;2022-09-03T06:19:00;4.47;;;3.20;;
45936;SDS011;31649;46.510;6.498;2022-09-03T06:21:26;8.82;;;2.53;;
45936;SDS011;31649;46.510;6.498;2022-09-03T06:23:53;4.68;;;2.90;;
45936;SDS011;31649;46.510;6.498;2022-09-03T06:26:23;5.30;;;3.53;;
45936;SDS011;31649;46.510;6.498;2022-09-03T06:28:49;6.30;;;3.03;;
45936;SDS011;31649;46.510;6.498;2022-09-03T06:31:18;4.93;;;2.58;;
45936;SDS011;31649;46.510;6.498;2022-09-03T06:33:44;3.70;;;2.75;;
45936;SDS011;31649;46.510;6.498;2022-09-03T06:36:12;4.13;;;3.15;;
45936;SDS011;31649;46.510;6.498;2022-09-03T06:38:39;6.47;;;3.17;;
45936;SDS011;31649;46.510;6.498;2022-09-03T06:41:07;4.43;;;3.05;;
45936;SDS011;31649;46.510;6.498;2022-09-03T06:43:33;11.30;;;5.57;;
45936;SDS011;31649;46.510;6.498;2022-09-03T06:46:04;4.35;;;3.70;;
45936;SDS011;31649;46.510;6.498;2022-09-03T06:48:38;6.45;;;3.45;;
45936;SDS011;31649;46.510;6.498;2022-09-03T06:51:09;7.88;;;3.50;;
45936;SDS011;31649;46.510;6.498;2022-09-03T06:53:39;9.57;;;3.15;;
45936;SDS011;31649;46.510;6.498;2022-09-03T06:56:16;3.65;;;2.92;;
45936;SDS011;31649;46.510;6.498;2022-09-03T06:58:50;6.20;;;2.90;;
45936;SDS011;31649;46.510;6.498;2022-09-03T07:01:19;5.13;;;3.13;;
45936;SDS011;31649;46.510;6.498;2022-09-03T07:03:46;4.55;;;3.33;;
45936;SDS011;31649;46.510;6.498;2022-09-03T07:06:16;3.90;;;3.08;;
45936;SDS011;31649;46.510;6.498;2022-09-03T07:08:44;4.60;;;2.85;;
45936;SDS011;31649;46.510;6.498;2022-09-03T07:11:14;4.85;;;3.10;;
45936;SDS011;31649;46.510;6.498;2022-09-03T07:13:42;7.35;;;4.38;;
45936;SDS011;31649;46.510;6.498;2022-09-03T07:16:11;4.50;;;3.88;;
45936;SDS011;31649;46.510;6.498;2022-09-03T07:18:38;8.00;;;3.35;;
45936;SDS011;31649;46.510;6.498;2022-09-03T07:21:05;5.15;;;3.42;;
45936;SDS011;31649;46.510;6.498;2022-09-03T07:23:32;4.97;;;3.17;;
45936;SDS011;31649;46.510;6.498;2022-09-03T07:25:59;3.78;;;3.00;;
45936;SDS011;31649;46.510;6.498;2022-09-03T07:28:27;3.30;;;2.80;;
45936;SDS011;31649;46.510;6.498;2022-09-03T07:30:53;4.75;;;2.60;;
45936;SDS011;31649;46.510;6.498;2022-09-03T07:33:24;6.70;;;3.40;;
45936;SDS011;31649;46.510;6.498;2022-09-03T07:35:50;4.03;;;3.15;;
45936;SDS011;31649;46.510;6.498;2022-09-03T07:38:16;2.58;;;2.38;;
45936;SDS011;31649;46.510;6.498;2022-09-03T07:40:43;6.18;;;3.58;;
45936;SDS011;31649;46.510;6.498;2022-09-03T07:43:10;4.55;;;3.33;;
45936;SDS011;31649;46.510;6.498;2022-09-03T07:45:36;3.75;;;2.47;;
45936;SDS011;31649;46.510;6.498;2022-09-03T07:48:03;4.03;;;2.53;;
45936;SDS011;31649;46.510;6.498;2022-09-03T07:50:28;2.70;;;2.50;;
45936;SDS011;31649;46.510;6.498;2022-09-03T07:52:57;3.28;;;2.70;;
45936;SDS011;31649;46.510;6.498;2022-09-03T07:55:23;3.47;;;2.90;;
45936;SDS011;31649;46.510;6.498;2022-09-03T07:57:54;4.00;;;3.08;;
45936;SDS011;31649;46.510;6.498;2022-09-03T08:00:19;2.85;;;2.58;;
45936;SDS011;31649;46.510;6.498;2022-09-03T08:02:45;6.20;;;2.97;;
45936;SDS011;31649;46.510;6.498;2022-09-03T08:05:10;4.18;;;2.30;;
45936;SDS011;31649;46.510;6.498;2022-09-03T08:07:35;3.33;;;2.55;;
45936;SDS011;31649;46.510;6.498;2022-09-03T08:10:01;5.88;;;2.40;;
45936;SDS011;31649;46.510;6.498;2022-09-03T08:12:26;2.25;;;1.90;;
45936;SDS011;31649;46.510;6.498;2022-09-03T08:14:52;3.95;;;2.10;;
45936;SDS011;31649;46.510;6.498;2022-09-03T08:17:17;3.00;;;2.38;;
45936;SDS011;31649;46.510;6.498;2022-09-03T08:19:42;2.58;;;2.17;;
45936;SDS011;31649;46.510;6.498;2022-09-03T08:22:10;2.30;;;1.88;;
45936;SDS011;31649;46.510;6.498;2022-09-03T08:24:35;2.95;;;2.60;;
45936;SDS011;31649;46.510;6.498;2022-09-03T08:27:01;3.72;;;2.55;;
45936;SDS011;31649;46.510;6.498;2022-09-03T08:29:27;3.22;;;2.35;;
45936;SDS011;31649;46.510;6.498;2022-09-03T08:31:52;2.83;;;2.05;;
45936;SDS011;31649;46.510;6.498;2022-09-03T08:34:18;5.60;;;2.53;;
45936;SDS011;31649;46.510;6.498;2022-09-03T08:36:44;3.60;;;2.30;;
45936;SDS011;31649;46.510;6.498;2022-09-03T08:39:11;1.98;;;1.73;;
45936;SDS011;31649;46.510;6.498;2022-09-03T08:46:50;4.40;;;2.33;;
45936;SDS011;31649;46.510;6.498;2022-09-03T08:49:24;2.97;;;2.33;;
45936;SDS011;31649;46.510;6.498;2022-09-03T08:51:55;3.60;;;2.20;;
45936;SDS011;31649;46.510;6.498;2022-09-03T08:54:28;2.70;;;2.13;;
45936;SDS011;31649;46.510;6.498;2022-09-03T08:56:55;4.18;;;3.50;;
45936;SDS011;31649;46.510;6.498;2022-09-03T08:59:24;8.45;;;4.55;;
45936;SDS011;31649;46.510;6.498;2022-09-03T09:02:25;6.90;;;5.60;;
45936;SDS011;31649;46.510;6.498;2022-09-03T09:04:55;4.20;;;2.70;;
45936;SDS011;31649;46.510;6.498;2022-09-03T09:07:49;2.97;;;2.30;;
45936;SDS011;31649;46.510;6.498;2022-09-03T09:13:27;2.33;;;2.13;;
45936;SDS011;31649;46.510;6.498;2022-09-03T09:19:44;4.18;;;1.80;;
45936;SDS011;31649;46.510;6.498;2022-09-03T09:21:45;2.22;;;2.00;;
45936;SDS011;31649;46.510;6.498;2022-09-03T09:24:25;5.57;;;2.78;;
45936;SDS011;31649;46.510;6.498;2022-09-03T09:26:58;3.08;;;1.98;;
45936;SDS011;31649;46.510;6.498;2022-09-03T09:29:30;2.50;;;2.25;;
45936;SDS011;31649;46.510;6.498;2022-09-03T09:31:59;3.67;;;2.27;;
45936;SDS011;31649;46.510;6.498;2022-09-03T09:34:24;3.63;;;2.22;;
45936;SDS011;31649;46.510;6.498;2022-09-03T09:36:52;7.53;;;3.22;;
45936;SDS011;31649;46.510;6.498;2022-09-03T09:39:18;3.55;;;2.95;;
45936;SDS011;31649;46.510;6.498;2022-09-03T09:42:01;5.30;;;3.50;;
45936;SDS011;31649;46.510;6.498;2022-09-03T09:44:32;17.65;;;5.40;;
45936;SDS011;31649;46.510;6.498;2022-09-03T09:47:40;15.88;;;4.78;;
45936;SDS011;31649;46.510;6.498;2022-09-03T09:49:56;6.15;;;3.72;;
45936;SDS011;31649;46.510;6.498;2022-09-03T09:52:23;4.30;;;1.80;;
45936;SDS011;31649;46.510;6.498;2022-09-03T09:54:52;2.05;;;1.83;;
45936;SDS011;31649;46.510;6.498;2022-09-03T09:57:31;2.97;;;2.25;;
45936;SDS011;31649;46.510;6.498;2022-09-03T10:00:06;4.65;;;2.78;;
45936;SDS011;31649;46.510;6.498;2022-09-03T10:02:38;3.92;;;2.20;;
45936;SDS011;31649;46.510;6.498;2022-09-03T10:05:13;2.55;;;2.10;;
45936;SDS011;31649;46.510;6.498;2022-09-03T10:07:53;3.13;;;2.65;;
45936;SDS011;31649;46.510;6.498;2022-09-03T10:10:23;3.75;;;2.50;;
45936;SDS011;31649;46.510;6.498;2022-09-03T10:15:28;2.35;;;2.15;;
45936;SDS011;31649;46.510;6.498;2022-09-03T10:21:11;3.90;;;2.40;;
45936;SDS011;31649;46.510;6.498;2022-09-03T10:26:14;3.78;;;3.03;;
45936;SDS011;31649;46.510;6.498;2022-09-03T10:28:43;2.88;;;2.10;;
45936;SDS011;31649;46.510;6.498;2022-09-03T10:42:54;3.78;;;2.13;;
45936;SDS011;31649;46.510;6.498;2022-09-03T10:54:07;3.40;;;2.30;;
45936;SDS011;31649;46.510;6.498;2022-09-03T10:59:38;4.93;;;3.60;;
45936;SDS011;31649;46.510;6.498;2022-09-03T11:02:14;2.22;;;2.00;;
45936;SDS011;31649;46.510;6.498;2022-09-03T11:07:26;5.07;;;2.35;;
45936;SDS011;31649;46.510;6.498;2022-09-03T11:10:00;4.38;;;2.50;;
45936;SDS011;31649;46.510;6.498;2022-09-03T11:13:00;2.85;;;2.58;;
45936;SDS011;31649;46.510;6.498;2022-09-03T11:15:34;4.68;;;2.22;;
45936;SDS011;31649;46.510;6.498;2022-09-03T11:20:50;6.88;;;2.15;;
45936;SDS011;31649;46.510;6.498;2022-09-03T11:23:19;2.08;;;1.70;;
45936;SDS011;31649;46.510;6.498;2022-09-03T11:25:55;3.90;;;2.42;;
45936;SDS011;31649;46.510;6.498;2022-09-03T11:33:26;2.70;;;2.50;;
45936;SDS011;31649;46.510;6.498;2022-09-03T11:35:59;5.50;;;3.17;;
45936;SDS011;31649;46.510;6.498;2022-09-03T11:38:25;8.67;;;4.13;;
45936;SDS011;31649;46.510;6.498;2022-09-03T11:43:36;2.85;;;1.80;;
45936;SDS011;31649;46.510;6.498;2022-09-03T11:48:54;2.15;;;1.95;;
45936;SDS011;31649;46.510;6.498;2022-09-03T11:54:05;3.58;;;2.17;;
45936;SDS011;31649;46.510;6.498;2022-09-03T11:56:37;3.60;;;2.30;;
45936;SDS011;31649;46.510;6.498;2022-09-03T12:01:38;3.13;;;2.30;;
45936;SDS011;31649;46.510;6.498;2022-09-03T12:04:09;3.88;;;3.47;;
45936;SDS011;31649;46.510;6.498;2022-09-03T12:07:23;2.03;;;1.88;;
45936;SDS011;31649;46.510;6.498;2022-09-03T12:14:49;1.70;;;1.60;;
45936;SDS011;31649;46.510;6.498;2022-09-03T12:19:56;3.25;;;2.08;;
45936;SDS011;31649;46.510;6.498;2022-09-03T12:22:23;4.63;;;1.85;;
45936;SDS011;31649;46.510;6.498;2022-09-03T12:24:55;3.42;;;2.20;;
45936;SDS011;31649;46.510;6.498;2022-09-03T12:27:33;2.20;;;2.00;;
45936;SDS011;31649;46.510;6.498;2022-09-03T12:29:59;2.42;;;2.00;;
45936;SDS011;31649;46.510;6.498;2022-09-03T12:32:30;2.35;;;2.13;;
45936;SDS011;31649;46.510;6.498;2022-09-03T12:35:09;3.58;;;2.50;;
45936;SDS011;31649;46.510;6.498;2022-09-03T12:40:24;2.25;;;2.05;;
45936;SDS011;31649;46.510;6.498;2022-09-03T12:42:54;7.68;;;2.35;;
45936;SDS011;31649;46.510;6.498;2022-09-03T12:45:25;2.22;;;1.95;;
45936;SDS011;31649;46.510;6.498;2022-09-03T12:47:50;2.85;;;1.90;;
45936;SDS011;31649;46.510;6.498;2022-09-03T12:50:20;2.40;;;1.80;;
45936;SDS011;31649;46.510;6.498;2022-09-03T12:52:51;2.55;;;2.03;;
45936;SDS011;31649;46.510;6.498;2022-09-03T12:55:34;2.00;;;1.80;;
45936;SDS011;31649;46.510;6.498;2022-09-03T13:00:32;2.97;;;2.38;;
45936;SDS011;31649;46.510;6.498;2022-09-03T13:03:02;2.28;;;2.08;;
45936;SDS011;31649;46.510;6.498;2022-09-03T13:05:53;2.50;;;2.30;;
45936;SDS011;31649;46.510;6.498;2022-09-03T13:08:31;2.30;;;2.08;;
45936;SDS011;31649;46.510;6.498;2022-09-03T13:11:02;2.42;;;2.10;;
45936;SDS011;31649;46.510;6.498;2022-09-03T13:13:32;2.78;;;1.98;;
45936;SDS011;31649;46.510;6.498;2022-09-03T13:24:22;3.00;;;1.52;;
45936;SDS011;31649;46.510;6.498;2022-09-03T13:38:42;2.50;;;1.85;;
45936;SDS011;31649;46.510;6.498;2022-09-03T13:41:15;2.15;;;1.77;;
45936;SDS011;31649;46.510;6.498;2022-09-03T13:43:56;3.08;;;2.75;;
45936;SDS011;31649;46.510;6.498;2022-09-03T13:46:31;2.83;;;2.35;;
45936;SDS011;31649;46.510;6.498;2022-09-03T13:49:33;3.35;;;2.72;;
45936;SDS011;31649;46.510;6.498;2022-09-03T13:52:29;3.83;;;2.63;;
45936;SDS011;31649;46.510;6.498;2022-09-03T13:55:11;3.65;;;2.00;;
45936;SDS011;31649;46.510;6.498;2022-09-03T13:57:45;2.75;;;2.15;;
45936;SDS011;31649;46.510;6.498;2022-09-03T14:10:23;2.63;;;2.42;;
45936;SDS011;31649;46.510;6.498;2022-09-03T14:13:01;5.43;;;2.97;;
45936;SDS011;31649;46.510;6.498;2022-09-03T14:15:41;4.07;;;2.35;;
45936;SDS011;31649;46.510;6.498;2022-09-03T14:18:27;2.63;;;2.20;;
45936;SDS011;31649;46.510;6.498;2022-09-03T14:23:35;2.85;;;2.25;;
45936;SDS011;31649;46.510;6.498;2022-09-03T14:26:14;6.05;;;3.90;;
45936;SDS011;31649;46.510;6.498;2022-09-03T14:28:44;4.03;;;2.60;;
45936;SDS011;31649;46.510;6.498;2022-09-03T14:37:13;3.00;;;2.53;;
45936;SDS011;31649;46.510;6.498;2022-09-03T14:39:47;3.53;;;2.70;;
45936;SDS011;31649;46.510;6.498;2022-09-03T14:45:15;3.03;;;2.22;;
45936;SDS011;31649;46.510;6.498;2022-09-03T15:01:31;3.95;;;2.88;;
45936;SDS011;31649;46.510;6.498;2022-09-03T15:12:39;4.28;;;2.85;;
45936;SDS011;31649;46.510;6.498;2022-09-03T15:15:17;3.38;;;3.08;;
45936;SDS011;31649;46.510;6.498;2022-09-03T15:23:23;2.85;;;2.50;;
45936;SDS011;31649;46.510;6.498;2022-09-03T15:26:27;3.42;;;2.60;;
45936;SDS011;31649;46.510;6.498;2022-09-03T15:37:38;3.05;;;2.65;;
45936;SDS011;31649;46.510;6.498;2022-09-03T15:45:54;3.25;;;2.20;;
45936;SDS011;31649;46.510;6.498;2022-09-03T15:48:31;5.68;;;3.10;;
45936;SDS011;31649;46.510;6.498;2022-09-03T15:53:49;4.00;;;2.30;;
45936;SDS011;31649;46.510;6.498;2022-09-03T15:56:26;4.28;;;2.80;;
45936;SDS011;31649;46.510;6.498;2022-09-03T16:17:35;3.15;;;2.65;;
45936;SDS011;31649;46.510;6.498;2022-09-03T16:20:17;4.07;;;2.53;;
45936;SDS011;31649;46.510;6.498;2022-09-03T16:23:29;3.55;;;2.78;;
45936;SDS011;31649;46.510;6.498;2022-09-03T16:25:51;5.68;;;2.78;;
45936;SDS011;31649;46.510;6.498;2022-09-03T16:31:14;2.70;;;2.40;;
45936;SDS011;31649;46.510;6.498;2022-09-03T16:34:50;5.43;;;3.47;;
45936;SDS011;31649;46.510;6.498;2022-09-03T16:50:32;4.17;;;2.90;;
45936;SDS011;31649;46.510;6.498;2022-09-03T16:53:12;3.80;;;3.33;;
45936;SDS011;31649;46.510;6.498;2022-09-03T16:58:22;4.32;;;2.95;;
45936;SDS011;31649;46.510;6.498;2022-09-03T17:01:05;3.00;;;2.80;;
45936;SDS011;31649;46.510;6.498;2022-09-03T17:06:30;4.07;;;3.03;;
45936;SDS011;31649;46.510;6.498;2022-09-03T17:14:55;5.80;;;3.50;;
45936;SDS011;31649;46.510;6.498;2022-09-03T17:25:35;5.35;;;2.90;;
45936;SDS011;31649;46.510;6.498;2022-09-03T17:30:38;4.60;;;3.30;;
45936;SDS011;31649;46.510;6.498;2022-09-03T17:33:27;6.28;;;4.60;;
45936;SDS011;31649;46.510;6.498;2022-09-03T17:36:11;6.15;;;3.88;;
45936;SDS011;31649;46.510;6.498;2022-09-03T17:49:45;7.22;;;5.10;;
45936;SDS011;31649;46.510;6.498;2022-09-03T17:55:00;3.55;;;3.15;;
45936;SDS011;31649;46.510;6.498;2022-09-03T17:57:39;3.63;;;3.08;;
45936;SDS011;31649;46.510;6.498;2022-09-03T18:00:10;4.25;;;3.63;;
45936;SDS011;31649;46.510;6.498;2022-09-03T18:03:18;5.00;;;3.30;;
45936;SDS011;31649;46.510;6.498;2022-09-03T18:05:48;3.05;;;2.75;;
45936;SDS011;31649;46.510;6.498;2022-09-03T18:08:39;7.70;;;4.70;;
45936;SDS011;31649;46.510;6.498;2022-09-03T18:11:11;4.45;;;3.33;;
45936;SDS011;31649;46.510;6.498;2022-09-03T18:13:44;6.60;;;4.00;;
45936;SDS011;31649;46.510;6.498;2022-09-03T18:16:29;5.40;;;4.40;;
45936;SDS011;31649;46.510;6.498;2022-09-03T18:19:07;6.82;;;4.68;;
45936;SDS011;31649;46.510;6.498;2022-09-03T18:21:44;5.50;;;4.05;;
45936;SDS011;31649;46.510;6.498;2022-09-03T18:24:40;3.83;;;3.20;;
45936;SDS011;31649;46.510;6.498;2022-09-03T18:30:27;6.03;;;3.05;;
45936;SDS011;31649;46.510;6.498;2022-09-03T18:33:11;6.88;;;4.18;;
45936;SDS011;31649;46.510;6.498;2022-09-03T18:38:41;4.07;;;3.33;;
45936;SDS011;31649;46.510;6.498;2022-09-03T18:41:46;4.82;;;3.10;;
45936;SDS011;31649;46.510;6.498;2022-09-03T18:48:11;5.53;;;3.75;;
45936;SDS011;31649;46.510;6.498;2022-09-03T18:51:10;7.60;;;3.35;;
45936;SDS011;31649;46.510;6.498;2022-09-03T18:54:19;4.38;;;3.10;;
45936;SDS011;31649;46.510;6.498;2022-09-03T18:57:53;6.50;;;3.33;;
45936;SDS011;31649;46.510;6.498;2022-09-03T19:00:20;5.88;;;3.70;;
45936;SDS011;31649;46.510;6.498;2022-09-03T19:03:07;4.27;;;3.87;;
45936;SDS011;31649;46.510;6.498;2022-09-03T19:05:57;6.05;;;3.55;;
45936;SDS011;31649;46.510;6.498;2022-09-03T19:11:57;6.00;;;4.32;;
45936;SDS011;31649;46.510;6.498;2022-09-03T19:14:56;4.78;;;4.03;;
45936;SDS011;31649;46.510;6.498;2022-09-03T19:17:59;5.47;;;4.95;;
45936;SDS011;31649;46.510;6.498;2022-09-03T19:20:59;8.23;;;5.82;;
45936;SDS011;31649;46.510;6.498;2022-09-03T19:23:54;6.88;;;5.30;;
45936;SDS011;31649;46.510;6.498;2022-09-03T19:27:06;5.93;;;5.13;;
45936;SDS011;31649;46.510;6.498;2022-09-03T19:38:49;6.10;;;4.53;;
45936;SDS011;31649;46.510;6.498;2022-09-03T19:41:49;8.35;;;3.53;;
45936;SDS011;31649;46.510;6.498;2022-09-03T19:47:39;6.43;;;4.30;;
45936;SDS011;31649;46.510;6.498;2022-09-03T19:50:37;3.75;;;2.80;;
45936;SDS011;31649;46.510;6.498;2022-09-03T19:53:27;3.80;;;3.10;;
45936;SDS011;31649;46.510;6.498;2022-09-03T19:56:18;4.63;;;2.88;;
45936;SDS011;31649;46.510;6.498;2022-09-03T20:01:56;3.90;;;3.15;;
45936;SDS011;31649;46.510;6.498;2022-09-03T20:04:52;5.88;;;2.65;;
45936;SDS011;31649;46.510;6.498;2022-09-03T20:07:40;2.75;;;2.47;;
45936;SDS011;31649;46.510;6.498;2022-09-03T20:10:24;4.55;;;1.98;;
45936;SDS011;31649;46.510;6.498;2022-09-03T20:12:59;3.67;;;2.60;;
45936;SDS011;31649;46.510;6.498;2022-09-03T20:15:32;2.80;;;2.30;;
45936;SDS011;31649;46.510;6.498;2022-09-03T20:18:48;5.15;;;2.53;;
45936;SDS011;31649;46.510;6.498;2022-09-03T20:37:06;2.95;;;2.58;;
45936;SDS011;31649;46.510;6.498;2022-09-03T20:39:39;3.67;;;2.92;;